パゴパゴ の空港の天気 - METARとTAF

パゴパゴ国際空港 ( NSTU / PPG ) - アメリカ領サモア パゴパゴ
飛行場実況気象(Metar)
観測時間07/17 15:50 SST (07/18 02:50 UTC)
風向・風速東 5m/s
視程10km以上
天気現象
全天の4割程度の雲 雲底高度 550m
気温29.1℃
湿度73%
気圧1010.7hPa
METARNSTU 180250Z 09010KT 12SM SCT018 29/24 A2984 RMK SLP107 8/100 T02910238 56010
過去の天気等 Google飛行場航空写真 Wunderground天気予報

過去48時間のMETAR

飛行場予報(TAF)
発表時間: 7/17 12:37 SST (7/17 23:37 UTC)
予報対象時間: 17日13時 SST ~ 18日13時 SST
風向・風速東 5m/s
視程10km以上
天気現象周辺でしゅう雨
全天の4割程度の雲 雲底高度 610m
全天の4割程度の雲 雲底高度 1220m
全天の4割程度の雲 雲底高度 3050m
NSTU 172337Z 1800/1824 10009KT P6SM VCSH SCT020 SCT040 SCT100